createdAt,value
2023-03-06T00:03:14.890Z,97476.91
2023-03-06T00:08:45.942Z,97464.75
2023-03-06T00:14:10.894Z,97477.41
2023-03-06T00:19:37.889Z,97472.13
2023-03-06T00:25:03.920Z,97471.38
2023-03-06T00:30:30.913Z,97467.88
2023-03-06T00:35:58.955Z,97463.66
2023-03-06T00:41:24.958Z,97456.44
2023-03-06T00:46:49.914Z,97452.34
2023-03-06T00:52:16.924Z,97451.63
2023-03-06T00:57:41.917Z,97446.69
2023-03-06T01:03:05.906Z,97439.09
2023-03-06T01:08:39.910Z,97434.75
2023-03-06T01:14:04.972Z,97425.84
2023-03-06T01:19:29.954Z,97421.53
2023-03-06T01:24:57.895Z,97422.75
2023-03-06T01:30:23.906Z,97414.91
2023-03-06T01:35:49.986Z,97405.91
2023-03-06T01:41:21.923Z,97399.16
2023-03-06T01:46:48.924Z,97395.78
2023-03-06T01:52:16.949Z,97394.31
2023-03-06T01:57:48.932Z,97397.81
2023-03-06T02:03:19.958Z,97389.50
2023-03-06T02:08:50.994Z,97388.06
2023-03-06T02:14:18.992Z,97370.84
2023-03-06T02:20:00.960Z,97367.59
2023-03-06T02:25:41.940Z,97365.91
2023-03-06T02:31:09.012Z,97362.53
2023-03-06T02:36:33.932Z,97355.91
2023-03-06T02:42:01.964Z,97351.00
2023-03-06T02:47:26.953Z,97343.63
2023-03-06T02:52:51.980Z,97332.47
2023-03-06T02:58:19.971Z,97337.28
2023-03-06T03:03:44.979Z,97332.44
2023-03-06T03:09:17.932Z,97317.16
2023-03-06T03:14:45.956Z,97318.47
2023-03-06T03:20:11.976Z,97314.50
2023-03-06T03:25:36.974Z,97313.16
2023-03-06T03:31:04.004Z,97319.41
2023-03-06T03:36:29.035Z,97312.22
2023-03-06T03:41:53.979Z,97305.22
2023-03-06T03:47:22.981Z,97300.19
2023-03-06T03:52:47.999Z,97286.47
2023-03-06T03:58:13.981Z,97290.31
2023-03-06T04:03:42.998Z,97274.69
2023-03-06T04:09:14.983Z,97278.28
2023-03-06T04:14:41.959Z,97272.75
2023-03-06T04:20:10.964Z,97261.94
2023-03-06T04:25:37.006Z,97253.78
2023-03-06T04:31:03.139Z,97253.66
2023-03-06T04:36:37.009Z,97240.34
2023-03-06T04:42:02.021Z,97248.50
2023-03-06T04:47:26.974Z,97237.44
2023-03-06T04:52:53.996Z,97232.66
2023-03-06T04:58:22.021Z,97220.97
2023-03-06T05:03:51.061Z,97215.59
2023-03-06T05:09:25.040Z,97207.41
2023-03-06T05:14:49.995Z,97194.91
2023-03-06T05:20:16.029Z,97200.09
2023-03-06T05:25:44.005Z,97201.75
2023-03-06T05:31:09.009Z,97190.91
2023-03-06T05:36:36.071Z,97189.81
2023-03-06T05:42:03.038Z,97188.50
2023-03-06T05:47:28.050Z,97184.88
2023-03-06T05:52:52.048Z,97187.44
2023-03-06T05:58:19.993Z,97189.94
2023-03-06T06:03:44.088Z,97187.16
2023-03-06T06:09:17.025Z,97182.59
2023-03-06T06:14:45.043Z,97185.97
2023-03-06T06:20:09.035Z,97187.50
2023-03-06T06:25:34.028Z,97186.69
2023-03-06T06:31:01.064Z,97166.09
2023-03-06T06:36:27.036Z,97165.00
2023-03-06T06:42:10.431Z,97159.47
2023-03-06T06:47:45.087Z,97164.53
2023-03-06T06:53:09.084Z,97159.00
2023-03-06T06:58:34.082Z,97157.66
2023-03-06T07:04:01.058Z,97166.91
2023-03-06T07:09:32.060Z,97168.44
2023-03-06T07:14:57.057Z,97166.13
2023-03-06T07:20:26.070Z,97161.56
2023-03-06T07:25:52.042Z,97174.03
2023-03-06T07:31:18.080Z,97174.75
2023-03-06T07:36:47.072Z,97184.09
2023-03-06T07:42:11.069Z,97180.00
2023-03-06T07:47:46.074Z,97180.34
2023-03-06T07:53:13.062Z,97184.00
2023-03-06T07:58:38.124Z,97176.28
2023-03-06T08:04:03.149Z,97167.53
2023-03-06T08:09:37.121Z,97169.97
2023-03-06T08:15:02.090Z,97170.78
2023-03-06T08:20:29.047Z,97173.84
2023-03-06T08:26:05.102Z,97172.13
2023-03-06T08:31:39.117Z,97162.91
2023-03-06T08:37:04.081Z,97164.75
2023-03-06T08:42:31.120Z,97159.63
2023-03-06T08:47:56.101Z,97175.97
2023-03-06T08:53:20.625Z,97173.22
2023-03-06T08:58:49.123Z,97179.50
2023-03-06T09:04:18.067Z,97183.13
2023-03-06T09:09:49.112Z,97197.34
2023-03-06T09:15:19.198Z,97204.19
2023-03-06T09:20:43.104Z,97209.66
2023-03-06T09:26:11.133Z,97209.66
2023-03-06T09:31:39.127Z,97213.56
2023-03-06T09:37:04.106Z,97211.19
2023-03-06T09:42:33.124Z,97212.41
2023-03-06T09:48:08.127Z,97218.00
2023-03-06T09:53:54.139Z,97220.13
2023-03-06T09:59:25.099Z,97226.69
2023-03-06T10:04:57.149Z,97218.63
2023-03-06T10:10:30.111Z,97223.66
2023-03-06T10:15:59.258Z,97213.59
2023-03-06T10:21:39.150Z,97206.81
2023-03-06T10:27:08.174Z,97212.28
2023-03-06T10:32:48.272Z,97210.38
2023-03-06T10:38:33.106Z,97207.00
2023-03-06T10:44:28.164Z,97206.78
2023-03-06T10:49:53.148Z,97203.72
2023-03-06T10:55:45.134Z,97199.53
2023-03-06T11:01:22.176Z,97190.31
2023-03-06T11:06:47.167Z,97191.28
2023-03-06T11:12:37.161Z,97187.81
2023-03-06T11:18:06.135Z,97182.63
2023-03-06T11:23:33.143Z,97179.66
2023-03-06T11:29:13.167Z,97165.25
2023-03-06T11:34:47.225Z,97152.66
2023-03-06T11:40:22.157Z,97144.81
2023-03-06T11:45:52.148Z,97131.25
2023-03-06T11:51:24.136Z,97126.34
2023-03-06T11:56:56.144Z,97130.22
2023-03-06T12:02:39.223Z,97106.81
2023-03-06T12:08:10.157Z,97102.50
2023-03-06T12:14:12.159Z,97081.63
2023-03-06T12:19:45.201Z,97076.50
2023-03-06T12:25:32.243Z,97068.88
2023-03-06T12:31:36.229Z,97063.81
2023-03-06T12:37:16.174Z,97058.34
2023-03-06T12:42:55.186Z,97038.97
2023-03-06T12:48:33.200Z,97042.00
2023-03-06T12:54:02.181Z,97039.72
2023-03-06T12:59:56.177Z,97035.97
2023-03-06T13:06:01.210Z,97039.63
2023-03-06T13:11:46.228Z,97020.19
2023-03-06T13:17:41.239Z,97012.13
2023-03-06T13:23:05.213Z,97025.88
2023-03-06T13:28:56.240Z,97042.88
2023-03-06T13:34:42.209Z,97053.47
2023-03-06T13:40:35.274Z,97064.16
2023-03-06T13:46:03.239Z,97064.75
2023-03-06T13:51:35.352Z,97071.75
2023-03-06T13:57:32.203Z,97061.53
2023-03-06T14:03:37.218Z,97064.31
2023-03-06T14:09:09.249Z,97062.22
2023-03-06T14:14:43.221Z,97045.72
2023-03-06T14:20:13.225Z,97056.03
2023-03-06T14:25:40.210Z,97040.78
2023-03-06T14:31:05.252Z,97034.50
2023-03-06T14:36:37.266Z,97041.50
2023-03-06T14:42:01.246Z,97032.53
2023-03-06T14:47:36.252Z,97029.44
2023-03-06T14:53:03.229Z,97027.59
2023-03-06T14:58:31.250Z,97034.44
2023-03-06T15:04:00.284Z,97022.53
2023-03-06T15:09:38.255Z,97027.94
2023-03-06T15:15:08.261Z,97032.16
2023-03-06T15:20:55.251Z,97025.69
2023-03-06T15:26:41.259Z,97026.41
2023-03-06T15:32:06.430Z,97032.53
2023-03-06T15:37:38.232Z,97033.41
2023-03-06T15:43:06.266Z,97025.28
2023-03-06T15:48:31.269Z,97034.94
2023-03-06T15:54:09.761Z,97037.22
2023-03-06T15:59:40.251Z,97038.75
2023-03-06T16:05:09.294Z,97039.91
2023-03-06T16:10:44.257Z,97057.91
2023-03-06T16:16:06.250Z,97059.16
2023-03-06T16:21:31.272Z,97073.13
2023-03-06T16:26:57.263Z,97084.31
2023-03-06T16:32:27.110Z,97081.25
2023-03-06T16:37:52.380Z,97089.47
2023-03-06T16:43:20.259Z,97090.72
2023-03-06T16:48:47.355Z,97095.75
2023-03-06T16:54:12.388Z,97104.13
2023-03-06T16:59:36.333Z,97095.44
2023-03-06T17:05:05.317Z,97097.97
2023-03-06T17:10:37.332Z,97108.84
2023-03-06T17:16:06.379Z,97110.22
2023-03-06T17:21:37.346Z,97108.25
2023-03-06T17:27:02.284Z,97111.03
2023-03-06T17:32:27.342Z,97112.41
2023-03-06T17:37:55.351Z,97117.25
2023-03-06T17:43:19.326Z,97113.16
2023-03-06T17:48:45.300Z,97124.91
2023-03-06T17:54:12.326Z,97132.72
2023-03-06T17:59:37.290Z,97119.75
2023-03-06T18:05:01.372Z,97117.09
2023-03-06T18:10:29.330Z,97109.25
2023-03-06T18:15:55.365Z,97127.78
2023-03-06T18:21:23.321Z,97124.28
2023-03-06T18:26:51.344Z,97128.47
2023-03-06T18:32:17.368Z,97139.59
2023-03-06T18:37:41.309Z,97132.88
2023-03-06T18:43:09.332Z,97125.59
2023-03-06T18:48:33.335Z,97126.09
2023-03-06T18:53:58.350Z,97125.78
2023-03-06T18:59:29.303Z,97124.91
2023-03-06T19:04:54.333Z,97125.16
2023-03-06T19:10:27.337Z,97118.56
2023-03-06T19:15:56.351Z,97119.28
2023-03-06T19:21:24.381Z,97119.53
2023-03-06T19:26:50.362Z,97119.28
2023-03-06T19:32:17.449Z,97118.88
2023-03-06T19:37:43.365Z,97115.97
2023-03-06T19:43:07.364Z,97115.00
2023-03-06T19:48:35.386Z,97107.88
2023-03-06T19:53:59.343Z,97107.78
2023-03-06T19:59:24.403Z,97097.28
2023-03-06T20:04:51.373Z,97092.97
2023-03-06T20:10:23.363Z,97085.28
2023-03-06T20:15:48.364Z,97081.94
2023-03-06T20:21:17.373Z,97076.75
2023-03-06T20:26:44.394Z,97072.56
2023-03-06T20:32:09.522Z,97076.31
2023-03-06T20:37:37.361Z,97072.94
2023-03-06T20:43:04.348Z,97068.47
2023-03-06T20:48:29.383Z,97068.03
2023-03-06T20:53:56.391Z,97058.66
2023-03-06T20:59:22.405Z,97060.50
2023-03-06T21:04:47.499Z,97052.53
2023-03-06T21:10:23.367Z,97053.38
2023-03-06T21:15:49.530Z,97047.00
2023-03-06T21:21:13.440Z,97046.13
2023-03-06T21:26:43.361Z,97042.53
2023-03-06T21:32:07.416Z,97034.72
2023-03-06T21:37:32.455Z,97033.03
2023-03-06T21:43:00.389Z,97027.28
2023-03-06T21:48:25.396Z,97022.38
2023-03-06T21:53:50.405Z,97027.91
2023-03-06T21:59:18.436Z,97010.50
2023-03-06T22:04:42.414Z,97003.66
2023-03-06T22:10:14.437Z,97005.59
2023-03-06T22:15:42.392Z,96988.28
2023-03-06T22:21:06.402Z,96988.56
2023-03-06T22:26:31.420Z,96982.56
2023-03-06T22:31:59.452Z,96976.69
2023-03-06T22:37:24.400Z,96975.97
2023-03-06T22:42:49.415Z,96974.34
2023-03-06T22:48:17.479Z,96969.88
2023-03-06T22:53:41.411Z,96967.81
2023-03-06T22:59:07.465Z,96948.47
2023-03-06T23:04:34.426Z,96946.63
2023-03-06T23:10:00.422Z,96931.72
2023-03-06T23:15:43.554Z,96932.69
2023-03-06T23:21:31.438Z,96932.69
2023-03-06T23:27:14.392Z,96921.38
2023-03-06T23:32:41.441Z,96924.31
2023-03-06T23:38:09.452Z,96923.75
2023-03-06T23:43:34.432Z,96914.94
2023-03-06T23:48:59.464Z,96914.25
2023-03-06T23:54:27.443Z,96904.38
2023-03-06T23:59:51.489Z,96890.03
